createdAt,value
2023-04-25T00:00:26.749Z,9.25
2023-04-25T00:02:53.349Z,9.28
2023-04-25T00:05:20.784Z,9.29
2023-04-25T00:07:47.374Z,9.29
2023-04-25T00:10:13.848Z,9.31
2023-04-25T00:12:41.351Z,9.32
2023-04-25T00:15:08.582Z,9.35
2023-04-25T00:17:35.876Z,9.37
2023-04-25T00:20:05.844Z,9.39
2023-04-25T00:22:32.584Z,9.42
2023-04-25T00:25:01.101Z,9.45
2023-04-25T00:27:27.920Z,9.46
2023-04-25T00:29:54.312Z,9.48
2023-04-25T00:32:20.942Z,9.49
2023-04-25T00:34:47.324Z,9.51
2023-04-25T00:37:13.823Z,9.54
2023-04-25T00:39:40.640Z,9.55
2023-04-25T00:42:08.863Z,9.55
2023-04-25T00:44:36.538Z,9.57
2023-04-25T00:47:03.628Z,9.57
2023-04-25T00:49:30.434Z,9.58
2023-04-25T00:51:57.410Z,9.60
2023-04-25T00:54:24.057Z,9.61
2023-04-25T00:56:50.728Z,9.62
2023-04-25T00:59:18.509Z,9.64
2023-04-25T01:01:46.072Z,9.65
2023-04-25T01:04:14.173Z,9.65
2023-04-25T01:06:41.771Z,9.67
2023-04-25T01:09:08.616Z,9.67
2023-04-25T01:11:35.167Z,9.68
2023-04-25T01:14:02.985Z,9.68
2023-04-25T01:16:29.974Z,9.68
2023-04-25T01:18:57.003Z,9.68
2023-04-25T01:21:23.968Z,9.67
2023-04-25T01:23:51.204Z,9.67
2023-04-25T01:26:18.433Z,9.67
2023-04-25T01:28:46.330Z,9.67
2023-04-25T01:31:13.795Z,9.65
2023-04-25T01:33:40.515Z,9.62
2023-04-25T01:36:07.351Z,9.60
2023-04-25T01:38:34.203Z,9.58
2023-04-25T01:41:00.778Z,9.56
2023-04-25T01:43:27.551Z,9.55
2023-04-25T01:45:54.421Z,9.54
2023-04-25T01:48:20.995Z,9.53
2023-04-25T01:50:47.684Z,9.52
2023-04-25T01:53:15.640Z,9.51
2023-04-25T01:55:42.274Z,9.51
2023-04-25T01:58:11.374Z,9.51
2023-04-25T02:00:39.773Z,9.52
2023-04-25T02:03:06.778Z,9.49
2023-04-25T02:05:40.280Z,9.46
2023-04-25T02:08:08.199Z,9.47
2023-04-25T02:10:35.290Z,9.45
2023-04-25T02:13:02.155Z,9.43
2023-04-25T02:15:28.755Z,9.39
2023-04-25T02:17:55.245Z,9.37
2023-04-25T02:20:24.117Z,9.34
2023-04-25T02:22:50.680Z,9.33
2023-04-25T02:25:18.320Z,9.30
2023-04-25T02:27:44.716Z,9.29
2023-04-25T02:30:12.304Z,9.28
2023-04-25T02:32:39.892Z,9.24
2023-04-25T02:35:07.581Z,9.22
2023-04-25T02:37:35.785Z,9.20
2023-04-25T02:40:04.157Z,9.19
2023-04-25T02:42:31.321Z,9.17
2023-04-25T02:44:57.856Z,9.16
2023-04-25T02:47:24.667Z,9.16
2023-04-25T02:49:51.367Z,9.15
2023-04-25T02:52:17.962Z,9.14
2023-04-25T02:54:44.475Z,9.13
2023-04-25T02:57:11.077Z,9.12
2023-04-25T02:59:37.508Z,9.10
2023-04-25T03:02:04.098Z,9.09
2023-04-25T03:04:30.707Z,9.09
2023-04-25T03:06:57.250Z,9.08
2023-04-25T03:09:24.404Z,9.08
2023-04-25T03:11:50.877Z,9.08
2023-04-25T03:14:17.314Z,9.07
2023-04-25T03:16:43.892Z,9.05
2023-04-25T03:19:10.295Z,9.04
2023-04-25T03:21:37.528Z,9.02
2023-04-25T03:24:05.440Z,9.01
2023-04-25T03:26:32.156Z,8.99
2023-04-25T03:28:58.755Z,8.97
2023-04-25T03:31:26.298Z,8.94
2023-04-25T03:33:52.890Z,8.94
2023-04-25T13:24:10.941Z,17.02
2023-04-25T13:26:37.579Z,17.52
2023-04-25T13:29:04.781Z,18.06
2023-04-25T13:31:32.350Z,18.66
2023-04-25T13:33:58.856Z,19.29
2023-04-25T13:39:17.383Z,20.53
2023-04-25T13:41:43.906Z,21.03
2023-04-25T13:44:11.536Z,21.54
2023-04-25T13:46:46.336Z,21.96
2023-04-25T13:49:14.212Z,22.14
2023-04-25T13:51:41.858Z,21.98
2023-04-25T13:54:08.612Z,21.57
2023-04-25T13:56:35.592Z,21.01
2023-04-25T13:59:02.116Z,20.38
2023-04-25T14:01:29.221Z,19.76
2023-04-25T14:03:56.041Z,19.17
2023-04-25T14:06:24.995Z,18.60
2023-04-25T14:08:52.792Z,18.11
2023-04-25T14:11:19.445Z,17.65
2023-04-25T14:13:56.218Z,17.24
2023-04-25T14:16:24.032Z,16.94
2023-04-25T14:18:50.637Z,16.77
2023-04-25T14:21:17.144Z,16.80
2023-04-25T14:23:43.761Z,17.09
2023-04-25T14:26:13.519Z,17.52
2023-04-25T14:28:40.183Z,18.06
2023-04-25T14:31:06.928Z,18.61
2023-04-25T14:33:33.466Z,19.07
2023-04-25T14:36:00.075Z,19.47
2023-04-25T14:38:27.793Z,19.79
2023-04-25T14:40:55.058Z,20.09
2023-04-25T14:43:21.606Z,20.41
2023-04-25T14:45:48.131Z,20.67
2023-04-25T14:48:14.688Z,20.79
2023-04-25T14:50:41.306Z,20.74
2023-04-25T14:53:07.983Z,20.59
2023-04-25T14:55:34.501Z,20.37
2023-04-25T14:58:02.111Z,20.16
2023-04-25T15:00:28.650Z,20.04
2023-04-25T15:02:55.398Z,20.11
2023-04-25T15:05:21.955Z,20.31
2023-04-25T15:07:49.024Z,20.57
2023-04-25T15:10:16.980Z,20.87
2023-04-25T15:12:45.144Z,21.20
2023-04-25T15:15:17.508Z,21.57
2023-04-25T15:17:51.861Z,21.98
2023-04-25T15:20:18.401Z,22.22
2023-04-25T15:22:49.779Z,22.21
2023-04-25T15:25:20.219Z,21.86
2023-04-25T15:27:49.277Z,21.28
2023-04-25T15:30:17.603Z,20.60
2023-04-25T15:32:45.064Z,19.88
2023-04-25T15:35:12.065Z,19.23
2023-04-25T15:37:38.959Z,18.66
2023-04-25T15:40:11.991Z,18.16
2023-04-25T15:43:04.613Z,17.77
2023-04-25T15:45:32.447Z,17.43
2023-04-25T15:47:59.133Z,17.08
2023-04-25T15:50:25.979Z,16.72
2023-04-25T15:52:52.598Z,16.46
2023-04-25T15:55:21.773Z,16.34
2023-04-25T15:57:49.750Z,16.45
2023-04-25T16:00:17.801Z,16.67
2023-04-25T16:02:45.687Z,16.94
2023-04-25T16:05:14.447Z,17.16
2023-04-25T16:07:42.722Z,17.33
2023-04-25T16:10:11.216Z,17.38
2023-04-25T16:12:41.137Z,17.30
2023-04-25T16:15:08.128Z,17.16
2023-04-25T16:17:35.286Z,16.98
2023-04-25T16:20:04.660Z,16.85
2023-04-25T16:22:31.792Z,16.82
2023-04-25T16:24:58.217Z,16.89
2023-04-25T16:27:24.741Z,17.01
2023-04-25T16:29:57.294Z,17.11
2023-04-25T16:32:23.948Z,17.13
2023-04-25T16:34:50.431Z,17.02
2023-04-25T16:37:16.954Z,16.78
2023-04-25T16:39:43.593Z,16.47
2023-04-25T16:42:10.473Z,16.08
2023-04-25T16:44:36.943Z,15.72
2023-04-25T16:47:05.150Z,15.35
2023-04-25T16:49:32.420Z,15.01
2023-04-25T16:51:58.883Z,14.68
2023-04-25T16:54:25.804Z,14.39
2023-04-25T16:56:52.661Z,14.05
2023-04-25T16:59:19.854Z,13.71
2023-04-25T17:01:46.403Z,13.37
2023-04-25T17:04:13.120Z,13.06
2023-04-25T17:06:39.795Z,12.80
2023-04-25T17:09:06.743Z,12.57
2023-04-25T17:11:33.288Z,12.38
2023-04-25T17:13:59.687Z,12.27
2023-04-25T17:16:37.962Z,12.14
2023-04-25T17:19:07.670Z,12.11
2023-04-25T17:21:34.224Z,12.13
2023-04-25T17:24:01.038Z,12.18
2023-04-25T17:26:27.756Z,12.24
2023-04-25T17:28:54.865Z,12.32
2023-04-25T17:31:23.660Z,12.40
2023-04-25T17:33:50.614Z,12.47
2023-04-25T17:36:17.146Z,12.51
2023-04-25T17:38:43.752Z,12.54
2023-04-25T17:41:10.711Z,12.50
2023-04-25T17:43:37.286Z,12.46
2023-04-25T17:46:03.863Z,12.36
2023-04-25T17:48:31.748Z,12.28
2023-04-25T17:50:58.686Z,12.17
2023-04-25T17:53:25.390Z,12.07
2023-04-25T17:55:51.914Z,11.98
2023-04-25T17:58:18.463Z,11.90
2023-04-25T18:00:45.208Z,11.83
2023-04-25T18:03:12.108Z,11.75
2023-04-25T18:05:38.718Z,11.66
2023-04-25T18:08:06.808Z,11.55
2023-04-25T18:10:34.272Z,11.42
2023-04-25T18:13:01.179Z,11.30
2023-04-25T18:15:28.660Z,11.18
2023-04-25T18:17:57.048Z,11.05
2023-04-25T18:20:23.886Z,10.95
2023-04-25T18:22:51.087Z,10.85
2023-04-25T18:25:18.282Z,10.75
2023-04-25T18:27:45.761Z,10.67
2023-04-25T18:30:13.629Z,10.61
2023-04-25T18:32:40.386Z,10.57
2023-04-25T18:35:07.286Z,10.53
2023-04-25T18:37:33.859Z,10.50
2023-04-25T18:40:06.146Z,10.47
2023-04-25T18:42:33.535Z,10.43
2023-04-25T18:45:00.098Z,10.40
2023-04-25T18:47:26.765Z,10.37
2023-04-25T18:49:53.193Z,10.34
2023-04-25T18:52:19.830Z,10.29
2023-04-25T18:54:46.364Z,10.26
2023-04-25T18:57:15.181Z,10.23
2023-04-25T18:59:44.344Z,10.19
2023-04-25T19:02:11.749Z,10.14
2023-04-25T19:04:38.632Z,10.10
2023-04-25T19:07:05.308Z,10.04
2023-04-25T19:09:31.890Z,10.00
2023-04-25T19:11:58.449Z,9.96
2023-04-25T19:14:26.005Z,9.94
2023-04-25T19:16:52.854Z,9.91
2023-04-25T19:19:19.399Z,9.85
2023-04-25T19:21:46.072Z,9.81
2023-04-25T19:24:12.635Z,9.77
2023-04-25T19:26:39.697Z,9.71
2023-04-25T19:29:12.453Z,9.63
2023-04-25T19:31:40.219Z,9.60
2023-04-25T19:34:07.667Z,9.56
2023-04-25T19:36:34.708Z,9.48
2023-04-25T19:41:32.097Z,9.37
2023-04-25T19:44:02.412Z,9.33
2023-04-25T19:46:28.968Z,9.31
2023-04-25T19:48:55.458Z,9.29
2023-04-25T19:51:22.226Z,9.25
2023-04-25T19:53:48.970Z,9.24
2023-04-25T19:56:15.624Z,9.21
2023-04-25T19:58:42.813Z,9.19
2023-04-25T20:01:09.966Z,9.18
2023-04-25T20:03:36.944Z,9.16
2023-04-25T20:06:03.968Z,9.15
2023-04-25T20:08:30.700Z,9.12
2023-04-25T20:10:57.201Z,9.11
2023-04-25T20:13:23.658Z,9.09
2023-04-25T20:15:50.253Z,9.08
2023-04-25T20:18:16.947Z,9.06
2023-04-25T20:20:43.483Z,9.05
2023-04-25T20:23:09.985Z,9.05
2023-04-25T20:25:36.631Z,9.04
2023-04-25T20:28:03.164Z,9.03
2023-04-25T20:30:29.805Z,9.01
2023-04-25T20:32:56.584Z,8.98
2023-04-25T20:35:23.264Z,8.96
2023-04-25T20:37:50.951Z,8.92
2023-04-25T20:40:17.454Z,8.89
2023-04-25T20:42:43.978Z,8.85
2023-04-25T20:45:13.502Z,8.83
2023-04-25T20:47:41.005Z,8.80
2023-04-25T20:50:08.387Z,8.77
2023-04-25T20:52:37.297Z,8.72
2023-04-25T20:55:05.332Z,8.69
2023-04-25T20:57:32.112Z,8.66
2023-04-25T20:59:59.020Z,8.64
2023-04-25T21:02:25.719Z,8.59
2023-04-25T21:04:52.376Z,8.56
2023-04-25T21:07:19.231Z,8.54
2023-04-25T21:09:45.832Z,8.51
2023-04-25T21:12:12.518Z,8.48
2023-04-25T21:14:39.061Z,8.45
2023-04-25T21:17:05.792Z,8.43
2023-04-25T21:19:33.083Z,8.38
2023-04-25T21:21:59.721Z,8.35
2023-04-25T21:24:27.321Z,8.33
2023-04-25T21:26:53.860Z,8.32
2023-04-25T21:29:20.500Z,8.28
2023-04-25T21:31:47.084Z,8.26
2023-04-25T21:34:13.528Z,8.23
2023-04-25T21:36:41.298Z,8.20
2023-04-25T21:39:08.102Z,8.16
2023-04-25T21:41:34.737Z,8.13
2023-04-25T21:44:01.390Z,8.10
2023-04-25T21:46:27.869Z,8.07
2023-04-25T21:48:54.773Z,8.04
2023-04-25T21:51:22.148Z,8.02
2023-04-25T21:53:48.627Z,8.00
2023-04-25T21:56:15.140Z,7.98
2023-04-25T21:58:41.663Z,7.97
2023-04-25T22:01:08.574Z,7.92
2023-04-25T22:03:35.511Z,7.90
2023-04-25T22:06:03.861Z,7.88
2023-04-25T22:08:30.376Z,7.84
2023-04-25T22:10:57.218Z,7.81
2023-04-25T22:13:23.917Z,7.80
2023-04-25T22:15:50.733Z,7.79
2023-04-25T22:18:17.927Z,7.77
2023-04-25T22:20:44.954Z,7.75
2023-04-25T22:23:12.122Z,7.71
2023-04-25T22:25:38.975Z,7.69
2023-04-25T22:28:05.579Z,7.68
2023-04-25T22:30:32.639Z,7.67
2023-04-25T22:32:59.396Z,7.66
2023-04-25T22:35:26.287Z,7.65
2023-04-25T22:37:53.066Z,7.63
2023-04-25T22:40:19.860Z,7.61
2023-04-25T22:42:46.747Z,7.60
2023-04-25T22:45:13.555Z,7.59
2023-04-25T22:47:40.686Z,7.58
2023-04-25T22:50:12.810Z,7.55
2023-04-25T22:52:39.653Z,7.54
2023-04-25T22:55:09.390Z,7.53
2023-04-25T22:57:38.290Z,7.50
2023-04-25T23:00:15.919Z,7.49
2023-04-25T23:02:45.732Z,7.48
2023-04-25T23:05:13.357Z,7.47
2023-04-25T23:07:44.891Z,7.45
2023-04-25T23:10:12.277Z,7.41
2023-04-25T23:12:40.137Z,7.38
2023-04-25T23:15:07.852Z,7.35
2023-04-25T23:17:35.371Z,7.30
2023-04-25T23:20:02.036Z,7.27
2023-04-25T23:22:29.182Z,7.22
2023-04-25T23:24:55.926Z,7.17
2023-04-25T23:27:22.469Z,7.13
2023-04-25T23:29:56.725Z,7.08
2023-04-25T23:32:23.495Z,7.06
2023-04-25T23:34:49.990Z,7.01
2023-04-25T23:37:16.565Z,6.97
2023-04-25T23:39:52.502Z,6.90
2023-04-25T23:42:19.298Z,6.88
2023-04-25T23:44:45.861Z,6.84
2023-04-25T23:47:14.156Z,6.78
2023-04-25T23:49:41.080Z,6.74
2023-04-25T23:52:07.895Z,6.71
2023-04-25T23:54:34.448Z,6.68
2023-04-25T23:57:00.927Z,6.65
2023-04-25T23:59:28.577Z,6.63
